Time;durP1;ratioP1;P1;durP2;ratioP2;P2;SDS_P1;SDS_P2;PMS_P1;PMS_P2;Temp;Humidity;BMP_temperature;BMP_pressure;BME280_temperature;BME280_humidity;BME280_pressure;Samples;Min_cycle;Max_cycle;Signal;HPM_P1;HPM_P2
2022/04/12 00:01:15;;;;;;;37.92;21.75;;;;;;;0.42;74.65;98187.22;10296022;28;20065;-60
2022/04/12 00:06:14;;;;;;;27.98;16.83;;;;;;;0.30;74.56;98167.13;10295379;28;20076;-60
2022/04/12 00:11:13;;;;;;;29.25;18.70;;;;;;;-0.55;75.04;98041.59;10295395;28;20030;-60
2022/04/12 00:16:12;;;;;;;26.25;15.95;;;;;;;0.26;76.27;98193.28;10295054;28;20113;-60
2022/04/12 00:21:11;;;;;;;31.98;18.23;;;;;;;0.23;75.81;98190.63;10294577;28;20471;-60
2022/04/12 00:26:10;;;;;;;26.80;15.75;;;;;;;-0.19;75.96;98130.00;10294759;28;20411;-60
2022/04/12 00:31:09;;;;;;;36.67;23.77;;;;;;;0.11;75.83;98170.50;10294861;28;20034;-60
2022/04/12 00:36:09;;;;;;;28.05;18.52;;;;;;;0.10;76.46;98167.88;10294320;28;20467;-60
2022/04/12 00:41:10;;;;;;;29.08;19.15;;;;;;;0.08;76.42;98165.25;10294523;28;20057;-60
2022/04/12 00:46:10;;;;;;;25.60;17.73;;;;;;;0.07;76.44;98168.59;10294550;28;20515;-60
2022/04/12 00:51:09;;;;;;;29.10;18.52;;;;;;;0.05;76.74;98176.22;10292811;28;20078;-60
2022/04/12 00:56:09;;;;;;;33.72;20.30;;;;;;;0.05;76.41;98176.22;10293027;28;20080;-60
2022/04/12 01:01:08;;;;;;;27.63;18.63;;;;;;;-0.00;77.63;98174.22;10294095;28;20088;-60
2022/04/12 01:06:08;;;;;;;31.25;19.92;;;;;;;-0.37;77.67;98124.91;10293290;28;20131;-60
2022/04/12 01:11:07;;;;;;;33.50;21.08;;;;;;;-0.51;77.32;98090.25;10292653;28;20065;-60
2022/04/12 01:16:09;;;;;;;34.17;20.58;;;;;;;-0.06;77.41;98164.63;10292986;28;20064;-60
2022/04/12 01:21:08;;;;;;;30.83;19.55;;;;;;;-0.17;77.44;98164.09;10290790;28;20069;-60
2022/04/12 01:26:08;;;;;;;34.85;18.60;;;;;;;-0.08;77.47;98168.78;10291374;28;20061;-60
2022/04/12 01:31:06;;;;;;;;;;;;;;;-0.12;77.71;98174.53;10293130;28;20500;-60
2022/04/12 01:36:05;;;;;;;28.27;16.75;;;;;;;-1.19;77.45;97993.50;10291735;28;20473;-60
2022/04/12 01:41:04;;;;;;;287.90;131.43;;;;;;;-0.20;77.49;98169.06;10291778;28;20470;-60
2022/04/12 01:46:03;;;;;;;52.47;27.92;;;;;;;-0.23;77.66;98161.28;10291934;28;20065;-60
2022/04/12 01:51:02;;;;;;;43.80;23.13;;;;;;;-0.68;78.03;98096.19;10290312;28;20131;-60
2022/04/12 01:56:01;;;;;;;32.33;18.27;;;;;;;-1.18;78.35;98019.06;10290610;28;20065;-60
2022/04/12 02:01:00;;;;;;;46.85;25.38;;;;;;;-0.37;78.80;98169.91;10291771;28;20041;-60
2022/04/12 02:05:59;;;;;;;35.92;23.00;;;;;;;-0.41;79.45;98174.00;10291014;28;20475;-60
2022/04/12 02:10:58;;;;;;;43.97;25.30;;;;;;;-0.40;78.88;98164.66;10291517;28;20026;-61
2022/04/12 02:15:57;;;;;;;41.20;25.15;;;;;;;-0.56;79.43;98152.84;10291534;28;20108;-61
2022/04/12 02:20:56;;;;;;;37.10;22.73;;;;;;;-0.55;79.40;98159.72;10290874;28;20486;-61
2022/04/12 02:25:55;;;;;;;36.22;22.83;;;;;;;-0.52;79.10;98162.41;10290253;28;20034;-61
2022/04/12 02:30:54;;;;;;;42.08;23.77;;;;;;;-0.57;79.62;98157.88;10290972;28;20564;-61
2022/04/12 02:35:53;;;;;;;35.13;20.23;;;;;;;-0.94;80.17;98112.75;10289983;28;20478;-60
2022/04/12 02:40:52;;;;;;;36.65;21.33;;;;;;;-0.67;79.73;98154.03;10290015;28;20034;-61
2022/04/12 02:45:51;;;;;;;46.47;26.30;;;;;;;-0.71;79.50;98181.00;10289271;28;20121;-61
2022/04/12 02:50:50;;;;;;;;;;;;;;;-0.75;80.22;98162.94;10289992;28;20084;-61
2022/04/12 02:55:49;;;;;;;34.75;20.23;;;;;;;-0.84;80.99;98164.25;10289266;28;19956;-61
2022/04/12 03:00:48;;;;;;;39.75;21.70;;;;;;;-0.81;81.02;98156.75;10290645;28;20057;-61
2022/04/12 03:05:47;;;;;;;37.08;21.73;;;;;;;-0.84;81.66;98164.25;10289643;28;20069;-61
2022/04/12 03:10:46;;;;;;;46.50;26.92;;;;;;;-0.95;80.61;98146.66;10289310;28;20045;-61
2022/04/12 03:15:45;;;;;;;52.78;30.98;;;;;;;-1.28;80.60;98101.75;10289216;28;20040;-61
2022/04/12 03:20:44;;;;;;;58.83;33.78;;;;;;;-1.10;81.06;98126.38;10289414;28;20029;-61
2022/04/12 03:25:43;;;;;;;62.85;37.95;;;;;;;-0.87;80.79;98171.72;10288856;28;20100;-62
2022/04/12 03:30:43;;;;;;;51.20;30.58;;;;;;;-1.51;80.60;98066.63;10289047;28;20069;-62
2022/04/12 03:35:43;;;;;;;47.13;29.55;;;;;;;-1.62;81.45;98065.19;10289025;28;20065;-62
2022/04/12 03:40:42;;;;;;;53.70;30.13;;;;;;;-1.26;81.13;98120.53;10288389;28;20506;-62
2022/04/12 03:45:41;;;;;;;63.10;35.45;;;;;;;-0.96;81.84;98173.78;10288873;28;20072;-62
2022/04/12 03:50:40;;;;;;;65.93;41.63;;;;;;;-1.29;81.48;98125.44;10293988;28;20080;-62
2022/04/12 03:55:40;;;;;;;58.67;36.35;;;;;;;-0.95;81.75;98184.84;10295451;28;20045;-62
2022/04/12 04:00:40;;;;;;;60.40;38.13;;;;;;;-1.28;81.33;98121.22;10295558;28;20061;-62
2022/04/12 04:05:39;;;;;;;66.47;38.33;;;;;;;-0.91;81.16;98182.53;10295805;28;20088;-62
2022/04/12 04:10:38;;;;;;;53.00;32.70;;;;;;;-0.89;82.04;98188.59;10295238;28;20065;-62
2022/04/12 04:15:40;;;;;;;71.28;43.25;;;;;;;-1.16;81.28;98146.47;10295321;28;20059;-62
2022/04/12 04:20:42;;;;;;;52.13;33.17;;;;;;;-0.92;81.49;98178.25;10293419;28;20530;-62
2022/04/12 04:25:41;;;;;;;44.20;21.98;;;;;;;-1.20;81.56;98126.72;10294408;28;20061;-62
2022/04/12 04:30:44;;;;;;;36.08;24.15;;;;;;;-0.88;81.93;98181.84;10294029;28;20065;-62
2022/04/12 04:35:48;;;;;;;37.88;25.08;;;;;;;-0.70;81.61;98199.72;10295219;28;20072;-61
2022/04/12 04:40:48;;;;;;;43.15;29.63;;;;;;;-0.64;nan;98210.22;10292667;28;20566;-61
2022/04/12 04:45:47;;;;;;;41.25;26.35;;;;;;;-0.62;82.09;98221.38;10288042;28;20068;-61
2022/04/12 04:50:47;;;;;;;46.17;27.33;;;;;;;-0.51;82.17;98224.44;10293785;28;20054;-62
2022/04/12 04:55:47;;;;;;;41.22;25.98;;;;;;;-0.47;81.89;98200.88;10293097;28;20084;-62
2022/04/12 05:00:46;;;;;;;44.65;27.80;;;;;;;-0.62;81.53;98142.38;10292745;28;20472;-62
2022/04/12 05:05:45;;;;;;;61.97;41.08;;;;;;;-0.10;81.73;98217.97;10293247;28;20472;-62
2022/04/12 05:10:44;;;;;;;109.20;71.28;;;;;;;0.03;81.46;98216.09;10293203;28;20462;-62
2022/04/12 05:15:43;;;;;;;93.05;57.08;;;;;;;-0.59;80.71;98087.31;10293005;28;20065;-62
2022/04/12 05:20:43;;;;;;;42.47;25.92;;;;;;;0.21;80.95;98193.09;10285395;28;20081;-62
2022/04/12 05:25:42;;;;;;;37.33;24.23;;;;;;;0.57;80.06;98223.69;10288640;28;20065;-62
2022/04/12 05:30:41;;;;;;;28.08;17.05;;;;;;;0.75;79.84;98215.97;10284498;28;20037;-62
2022/04/12 05:35:40;;;;;;;25.15;16.95;;;;;;;0.87;78.72;98213.97;10288934;28;20041;-62
2022/04/12 05:40:39;;;;;;;39.45;25.25;;;;;;;0.65;78.09;98160.19;10291202;28;20060;-62
2022/04/12 05:45:38;;;;;;;44.03;26.42;;;;;;;0.79;78.01;98164.22;10292027;28;20033;-62
2022/04/12 05:50:37;;;;;;;37.97;24.77;;;;;;;1.35;77.53;98222.84;10282153;28;20459;-62
2022/04/12 05:55:36;;;;;;;36.58;23.80;;;;;;;1.53;77.08;98210.81;10289079;28;20061;-62
2022/04/12 06:00:36;;;;;;;34.42;22.77;;;;;;;1.74;76.49;98224.50;10288832;28;20046;-63
2022/04/12 06:05:36;;;;;;;24.52;17.95;;;;;;;1.98;76.17;98210.94;10288548;28;20033;-63
2022/04/12 06:10:34;;;;;;;30.70;19.92;;;;;;;1.93;73.90;98190.28;10278725;28;20061;-63
2022/04/12 06:15:33;;;;;;;27.00;18.42;;;;;;;2.32;73.69;98210.56;10290119;28;20029;-63
2022/04/12 06:20:33;;;;;;;27.73;18.50;;;;;;;2.65;73.03;98222.03;10284094;28;20084;-63
2022/04/12 06:25:31;;;;;;;25.17;16.90;;;;;;;2.75;71.96;98198.53;10289881;28;20064;-63
2022/04/12 06:30:30;;;;;;;28.58;17.38;;;;;;;2.35;71.57;98080.09;10289978;28;20041;-63
2022/04/12 06:35:29;;;;;;;22.77;16.02;;;;;;;3.15;70.05;98200.84;10289743;28;20496;-63
2022/04/12 06:40:28;;;;;;;26.25;15.63;;;;;;;3.23;69.64;98176.31;10287597;28;20492;-63
2022/04/12 06:45:28;;;;;;;22.05;13.57;;;;;;;3.54;68.79;98191.88;10288508;28;20069;-63
2022/04/12 06:50:28;;;;;;;22.80;14.25;;;;;;;4.08;69.41;98228.78;10281755;28;20129;-63
2022/04/12 06:55:27;;;;;;;22.02;13.95;;;;;;;4.40;68.47;98225.47;10283448;28;20475;-63
2022/04/12 07:00:26;;;;;;;22.75;14.10;;;;;;;4.18;65.30;98158.03;10262724;28;20056;-63
2022/04/12 07:05:25;;;;;;;20.50;15.43;;;;;;;4.72;65.26;98222.19;10289442;28;20065;-63
2022/04/12 07:10:24;;;;;;;25.98;15.77;;;;;;;4.91;65.01;98209.84;10290032;28;20104;-62
2022/04/12 07:15:23;;;;;;;25.63;16.55;;;;;;;5.25;64.35;98215.97;10289056;28;20037;-62
2022/04/12 07:20:22;;;;;;;24.27;15.27;;;;;;;5.51;61.83;98194.38;10289003;28;20028;-62
2022/04/12 07:25:21;;;;;;;22.17;16.13;;;;;;;5.89;62.94;98201.34;10288974;28;20108;-61
2022/04/12 07:30:20;;;;;;;27.90;18.42;;;;;;;5.82;60.15;98138.50;10296782;28;20062;-61
2022/04/12 07:35:19;;;;;;;24.85;13.77;;;;;;;6.41;58.40;98197.41;10296804;28;20484;-61
2022/04/12 07:40:18;;;;;;;16.80;10.90;;;;;;;6.72;54.48;98201.53;10297049;28;20061;-61
2022/04/12 07:45:17;;;;;;;13.05;8.15;;;;;;;6.73;51.24;98159.44;10296555;28;20489;-61
2022/04/12 07:50:16;;;;;;;7.57;4.18;;;;;;;7.23;46.77;98192.25;10294511;28;20077;-61
2022/04/12 07:55:15;;;;;;;7.47;3.83;;;;;;;7.58;44.55;98181.72;10293046;28;20048;-61
2022/04/12 08:00:14;;;;;;;8.75;3.83;;;;;;;7.36;45.80;98101.28;10295812;28;20061;-61
2022/04/12 08:05:13;;;;;;;6.47;3.47;;;;;;;8.15;44.62;98193.00;10295361;28;20567;-61
2022/04/12 08:10:13;;;;;;;6.28;3.40;;;;;;;7.69;44.80;98070.84;10294420;28;20419;-61
2022/04/12 08:15:12;;;;;;;;;;;;;;;8.61;43.00;98176.44;10294755;28;20061;-61
2022/04/12 08:20:13;;;;;;;7.40;3.73;;;;;;;8.69;41.24;98173.94;10295102;28;20394;-61
2022/04/12 08:25:12;;;;;;;8.02;3.75;;;;;;;8.51;41.24;98118.53;10295747;28;20057;-61
2022/04/12 08:30:12;;;;;;;4.55;3.25;;;;;;;8.50;38.94;98092.66;10294312;28;20037;-61
2022/04/12 08:35:11;;;;;;;4.65;2.67;;;;;;;9.09;38.86;98162.38;10294296;28;20484;-61
2022/04/12 08:40:11;;;;;;;5.45;3.00;;;;;;;9.16;38.35;98152.97;10295123;28;20050;-61
2022/04/12 08:45:11;;;;;;;5.57;2.67;;;;;;;9.40;38.05;98148.94;10293815;28;20506;-62
2022/04/12 08:50:10;;;;;;;;;;;;;;;9.61;38.67;98151.72;10293992;28;20065;-62
2022/04/12 08:55:09;;;;;;;3.70;2.90;;;;;;;9.80;38.30;98141.53;10294262;28;19960;-62
2022/04/12 09:00:08;;;;;;;4.70;3.22;;;;;;;9.71;36.51;98130.19;10292804;28;20062;-62
2022/04/12 09:05:08;;;;;;;;;;;;;;;9.83;36.78;98132.03;10293864;28;20069;-62
2022/04/12 09:10:08;;;;;;;7.33;2.97;;;;;;;9.73;36.98;98125.91;10293253;28;19952;-62
2022/04/12 09:15:11;;;;;;;4.18;2.55;;;;;;;9.72;37.06;98107.75;10293068;28;20057;-62
2022/04/12 09:20:17;;;;;;;6.15;2.90;;;;;;;9.90;38.64;98101.84;10291746;28;20056;-61
2022/04/12 09:25:16;;;;;;;8.05;3.78;;;;;;;10.18;36.17;98114.13;10292442;28;20065;-62
2022/04/12 09:30:15;;;;;;;7.28;2.90;;;;;;;10.33;35.14;98103.00;10292592;28;20057;-62
2022/04/12 09:35:15;;;;;;;4.78;3.00;;;;;;;10.17;35.23;98083.88;10291613;28;20057;-62
2022/04/12 09:40:16;;;;;;;3.97;2.55;;;;;;;10.20;32.89;98093.41;10291940;28;20064;-62
2022/04/12 09:45:30;;;;;;;6.55;2.88;;;;;;;10.26;33.52;98096.03;10291761;28;20499;-62
2022/04/12 09:50:30;;;;;;;9.23;5.75;;;;;;;9.89;33.24;98018.03;10291075;28;20491;-62
2022/04/12 09:55:44;;;;;;;4.47;3.20;;;;;;;10.51;35.06;98057.22;10291239;28;20065;-61
2022/04/12 10:00:47;;;;;;;4.65;2.10;;;;;;;10.67;33.64;98056.44;10291765;28;20061;-62
2022/04/12 10:05:47;;;;;;;17.08;9.68;;;;;;;10.74;34.18;98020.97;10291024;28;20084;-62
2022/04/12 10:10:46;;;;;;;3.75;2.25;;;;;;;10.94;32.81;98054.78;10290749;28;20058;-62
2022/04/12 10:15:45;;;;;;;5.88;2.40;;;;;;;10.83;32.96;98045.22;10291563;28;20096;-62
2022/04/12 10:20:44;;;;;;;3.47;2.13;;;;;;;10.82;33.01;98040.03;10288844;28;20496;-62
2022/04/12 10:25:46;;;;;;;4.72;2.20;;;;;;;10.99;32.34;98033.19;10291525;28;20058;-61
2022/04/12 10:30:45;;;;;;;11.13;5.20;;;;;;;10.81;33.50;98002.81;10290724;28;20073;-62
2022/04/12 10:35:44;;;;;;;5.07;2.85;;;;;;;11.35;34.45;98013.28;10288971;28;20159;-61
2022/04/12 10:40:44;;;;;;;6.07;2.03;;;;;;;11.11;32.80;97948.38;10289854;28;20403;-62
2022/04/12 10:45:49;;;;;;;5.93;2.10;;;;;;;11.08;32.16;97950.94;10289947;28;20069;-62
2022/04/12 10:50:56;;;;;;;5.95;2.30;;;;;;;11.52;32.54;98004.63;10289176;28;20543;-61
2022/04/12 10:56:02;;;;;;;7.72;2.05;;;;;;;11.91;32.08;98002.84;10289676;28;20061;-61
2022/04/12 11:01:03;;;;;;;3.08;1.90;;;;;;;11.83;30.29;97998.53;10303221;28;20073;-62
2022/04/12 11:06:02;;;;;;;16.55;5.65;;;;;;;12.00;31.78;97980.28;10302992;28;20068;-61
2022/04/12 11:11:03;;;;;;;6.03;2.38;;;;;;;12.48;32.31;97977.50;10303278;28;20066;-61
2022/04/12 11:16:09;;;;;;;4.18;2.40;;;;;;;12.49;30.66;97963.63;10302809;28;20072;-62
2022/04/12 11:21:08;;;;;;;62.63;39.10;;;;;;;12.64;30.69;97965.28;10303056;28;20057;-61
2022/04/12 11:26:46;;;;;;;2.17;1.60;;;;;;;12.81;29.78;97954.75;10302695;28;20038;-59
2022/04/12 11:31:51;;;;;;;6.93;2.47;;;;;;;12.92;30.08;97947.72;10302362;28;20069;-61
2022/04/12 11:36:57;;;;;;;55.50;25.60;;;;;;;12.81;29.94;97903.53;10302714;28;20487;-61
2022/04/12 11:42:01;;;;;;;3.25;1.80;;;;;;;12.85;27.74;97946.91;10302029;28;20072;-59
2022/04/12 11:47:03;;;;;;;3.03;2.08;;;;;;;12.69;29.44;97933.13;10302017;28;20062;-59
2022/04/12 11:52:05;;;;;;;4.38;1.90;;;;;;;12.68;28.22;97931.41;10302489;28;20082;-59
2022/04/12 11:57:07;;;;;;;4.05;2.40;;;;;;;12.77;27.89;97924.41;10302065;28;20065;-59
2022/04/12 12:02:06;;;;;;;4.55;2.25;;;;;;;13.07;29.53;97921.56;10297875;28;20480;-59
2022/04/12 12:07:07;;;;;;;2.30;1.80;;;;;;;13.05;29.04;97927.69;10302340;28;20096;-59
2022/04/12 12:12:08;;;;;;;2.10;1.67;;;;;;;12.70;28.29;97843.72;10294709;28;20882;-59
2022/04/12 12:17:12;;;;;;;4.47;2.20;;;;;;;13.43;29.54;97909.06;10295142;28;20058;-59
2022/04/12 12:22:13;;;;;;;3.03;2.13;;;;;;;13.62;29.32;97896.75;10295046;28;20053;-59
2022/04/12 12:27:12;;;;;;;4.18;2.03;;;;;;;13.78;29.29;97894.81;10295202;28;20068;-58
2022/04/12 12:32:16;;;;;;;4.40;2.00;;;;;;;13.22;28.44;97790.28;10294546;28;20030;-59
2022/04/12 12:37:15;;;;;;;4.38;1.90;;;;;;;13.50;27.73;97842.09;10294631;28;20076;-59
2022/04/12 12:42:14;;;;;;;2.42;1.58;;;;;;;13.43;27.95;97836.09;10294307;28;20057;-59
2022/04/12 12:47:13;;;;;;;3.70;1.60;;;;;;;13.86;28.33;97887.75;10294206;28;20065;-59
2022/04/12 12:52:17;;;;;;;3.58;1.65;;;;;;;13.80;28.74;97866.09;10294102;28;20083;-59
2022/04/12 12:57:16;;;;;;;3.70;2.20;;;;;;;13.74;28.02;97840.97;10293548;28;20065;-60
2022/04/12 13:02:16;;;;;;;3.42;1.90;;;;;;;13.69;27.53;97841.03;10293648;28;20041;-60
2022/04/12 13:07:14;;;;;;;;;;;;;;;14.16;26.41;97877.81;10294320;28;20068;-60
2022/04/12 13:12:15;;;;;;;3.15;1.67;;;;;;;14.14;27.63;97874.38;10292773;28;19913;-60
2022/04/12 13:17:15;;;;;;;5.63;2.80;;;;;;;13.92;28.28;97829.44;10293044;28;20061;-60
2022/04/12 13:22:14;;;;;;;5.60;2.30;;;;;;;14.04;27.81;97825.81;10291490;28;20068;-59
2022/04/12 13:27:13;;;;;;;3.15;2.25;;;;;;;14.02;27.17;97859.75;10293209;28;20040;-59
2022/04/12 13:32:13;;;;;;;2.40;1.85;;;;;;;14.01;26.83;97858.03;10292682;28;20038;-61
2022/04/12 13:37:13;;;;;;;4.53;2.30;;;;;;;14.05;27.03;97864.06;10292252;28;20069;-61
2022/04/12 13:42:13;;;;;;;4.13;1.90;;;;;;;14.08;26.58;97854.44;10292454;28;20472;-61
2022/04/12 13:47:12;;;;;;;4.68;2.40;;;;;;;14.26;26.88;97848.09;10291868;28;20065;-61
2022/04/12 13:52:11;;;;;;;3.67;2.20;;;;;;;14.19;26.84;97849.06;10291338;28;20085;-61
2022/04/12 13:57:10;;;;;;;3.17;1.80;;;;;;;14.27;27.50;97847.22;10291962;28;20104;-61
2022/04/12 14:02:09;;;;;;;4.53;2.22;;;;;;;14.24;27.22;97821.19;10291513;28;20064;-61
2022/04/12 14:07:10;;;;;;;;;;;;;;;14.49;27.59;97844.28;10291916;28;20081;-61
2022/04/12 14:12:09;;;;;;;2.72;1.95;;;;;;;14.55;26.40;97850.28;10289808;28;19961;-59
2022/04/12 14:17:10;;;;;;;;;;;;;;;14.46;27.56;97847.81;10290207;28;20124;-60
2022/04/12 14:22:09;;;;;;;3.75;2.05;;;;;;;14.55;26.99;97857.28;10288698;28;19964;-59
2022/04/12 14:27:12;;;;;;;6.22;2.90;;;;;;;14.43;28.06;97857.44;10290199;28;20037;-59
2022/04/12 14:32:11;;;;;;;4.13;2.72;;;;;;;14.03;27.31;97777.09;10290145;28;20070;-59
2022/04/12 14:37:10;;;;;;;2.30;1.92;;;;;;;14.40;27.15;97811.34;10288983;28;20033;-63
2022/04/12 14:42:09;;;;;;;4.03;2.15;;;;;;;14.29;27.80;97780.22;10288774;28;20088;-59
2022/04/12 14:47:08;;;;;;;3.33;2.03;;;;;;;14.57;28.33;97832.00;10290672;28;20034;-59
2022/04/12 14:52:07;;;;;;;;;;;;;;;14.19;29.24;97846.47;10288928;28;20084;-60
2022/04/12 14:57:06;;;;;;;5.40;2.63;;;;;;;14.03;30.06;97847.56;10291151;28;19917;-59
2022/04/12 15:02:05;;;;;;;4.22;2.53;;;;;;;13.18;29.84;97725.19;10288338;28;20053;-59
2022/04/12 15:07:04;;;;;;;6.18;3.42;;;;;;;13.95;29.81;97845.06;10285991;28;20042;-59
2022/04/12 15:12:04;;;;;;;7.38;4.22;;;;;;;13.93;30.72;97837.22;10286737;28;20075;-60
2022/04/12 15:17:03;;;;;;;7.03;3.85;;;;;;;13.56;31.15;97815.97;10285819;28;20071;-59
2022/04/12 15:22:02;;;;;;;;;;;;;;;13.70;31.03;97855.81;10289699;28;20061;-59
2022/04/12 15:27:01;;;;;;;7.03;3.72;;;;;;;13.61;31.84;97840.28;10290098;28;19968;-59
2022/04/12 15:32:00;;;;;;;6.65;4.55;;;;;;;13.25;31.82;97825.84;10289084;28;20057;-62
2022/04/12 15:36:59;;;;;;;16.75;8.63;;;;;;;13.34;32.51;97851.81;10289382;28;20069;-62
2022/04/12 15:41:58;;;;;;;7.30;3.80;;;;;;;13.04;31.85;97806.94;10289373;28;20108;-62
2022/04/12 15:46:57;;;;;;;5.85;3.80;;;;;;;13.43;32.08;97861.28;10294393;28;20144;-59
2022/04/12 15:51:56;;;;;;;;;;;;;;;13.22;32.74;97863.22;10296606;28;20076;-59
2022/04/12 15:56:55;;;;;;;6.13;3.40;;;;;;;13.07;32.06;97873.78;10296967;28;19945;-59
2022/04/12 16:01:54;;;;;;;7.45;4.05;;;;;;;13.09;32.40;97872.03;10296019;28;20112;-59
2022/04/12 16:06:53;;;;;;;9.73;4.20;;;;;;;13.04;32.43;97871.22;10295397;28;20072;-62
2022/04/12 16:11:52;;;;;;;9.10;6.00;;;;;;;12.73;33.55;97863.66;10296302;28;20057;-60
2022/04/12 16:16:51;;;;;;;13.25;7.80;;;;;;;12.49;34.16;97870.78;10295727;28;20116;-60
2022/04/12 16:21:50;;;;;;;8.65;5.55;;;;;;;12.17;34.46;97839.72;10295461;28;20029;-61
2022/04/12 16:26:49;;;;;;;8.70;5.03;;;;;;;12.23;34.60;97876.13;10295574;28;20053;-60
2022/04/12 16:31:48;;;;;;;12.25;7.43;;;;;;;12.03;34.77;97839.81;10294801;28;20040;-60
2022/04/12 16:36:47;;;;;;;12.18;7.72;;;;;;;11.87;35.50;97823.41;10294982;28;20033;-60
2022/04/12 16:41:46;;;;;;;15.60;8.93;;;;;;;12.16;35.97;97874.44;10294945;28;20057;-61
2022/04/12 16:46:45;;;;;;;21.25;11.27;;;;;;;11.62;35.70;97820.09;10294454;28;20073;-61
2022/04/12 16:51:44;;;;;;;24.95;15.30;;;;;;;11.67;36.96;97859.91;10290305;28;20060;-61
2022/04/12 16:56:43;;;;;;;23.58;14.82;;;;;;;11.33;38.12;97864.34;10293811;28;20081;-61
2022/04/12 17:01:42;;;;;;;14.85;9.18;;;;;;;11.33;38.48;97895.50;10292896;28;20065;-62
2022/04/12 17:06:43;;;;;;;9.43;5.82;;;;;;;11.04;39.07;97895.56;10293254;28;20042;-61
2022/04/12 17:11:42;;;;;;;7.10;4.28;;;;;;;10.80;40.47;97905.06;10293048;28;20073;-61
2022/04/12 17:16:41;;;;;;;7.63;4.30;;;;;;;10.09;40.61;97836.63;10293712;28;20487;-61
2022/04/12 17:21:40;;;;;;;15.00;7.38;;;;;;;10.35;40.82;97904.09;10292360;28;20385;-61
2022/04/12 17:26:40;;;;;;;9.15;5.88;;;;;;;10.16;41.15;97902.34;10292348;28;20073;-61
2022/04/12 17:31:42;;;;;;;9.80;5.55;;;;;;;10.06;41.43;97917.00;10292817;28;20076;-61
2022/04/12 17:36:44;;;;;;;9.00;5.45;;;;;;;10.01;41.26;97913.53;10291666;28;20065;-61
2022/04/12 17:41:43;;;;;;;17.75;8.25;;;;;;;9.92;42.15;97913.50;10291864;28;20072;-61
2022/04/12 17:46:42;;;;;;;14.45;8.75;;;;;;;9.83;42.75;97923.81;10292857;28;20034;-61
2022/04/12 17:51:41;;;;;;;19.95;11.90;;;;;;;9.63;43.17;97919.41;10291658;28;20081;-61
2022/04/12 17:56:40;;;;;;;25.67;16.77;;;;;;;9.40;43.96;97911.50;10291514;28;20041;-62
2022/04/12 18:01:39;;;;;;;28.23;19.60;;;;;;;9.30;44.62;97915.75;10291879;28;20117;-61
2022/04/12 18:06:38;;;;;;;44.33;26.08;;;;;;;9.24;45.57;97943.28;10290265;28;20080;-61
2022/04/12 18:11:37;;;;;;;30.10;18.90;;;;;;;8.79;45.90;97911.88;10290915;28;20084;-61
2022/04/12 18:16:38;;;;;;;19.20;11.02;;;;;;;8.76;46.70;97929.94;10291398;28;20468;-61
2022/04/12 18:21:37;;;;;;;15.95;10.35;;;;;;;8.67;46.80;97948.00;10289236;28;20089;-61
2022/04/12 18:26:38;;;;;;;14.80;8.90;;;;;;;8.51;47.36;97949.56;10290484;28;20124;-61
2022/04/12 18:31:37;;;;;;;14.95;10.52;;;;;;;8.29;48.26;97939.00;10291487;28;20077;-61
2022/04/12 18:36:36;;;;;;;16.65;11.23;;;;;;;7.76;48.53;97884.09;10289801;28;20148;-61
2022/04/12 18:41:35;;;;;;;17.67;11.32;;;;;;;7.47;49.05;97866.50;10289775;28;20041;-61
2022/04/12 18:46:34;;;;;;;19.45;12.95;;;;;;;7.82;50.92;97961.66;10290609;28;20292;-61
2022/04/12 18:51:33;;;;;;;23.90;16.58;;;;;;;7.58;51.61;97972.53;10288717;28;20487;-61
2022/04/12 18:56:32;;;;;;;25.00;17.13;;;;;;;7.44;52.65;97982.66;10289451;28;20797;-61
2022/04/12 19:01:36;;;;;;;38.40;25.55;;;;;;;7.31;52.99;97976.44;10289473;28;20029;-60
2022/04/12 19:06:35;;;;;;;31.10;20.52;;;;;;;7.17;53.10;97981.38;10288554;28;20069;-61
2022/04/12 19:11:34;;;;;;;29.38;20.20;;;;;;;7.08;53.51;97980.31;10289549;28;20049;-60
2022/04/12 19:16:33;;;;;;;42.30;27.83;;;;;;;6.95;54.25;97966.38;10289296;28;20069;-61
2022/04/12 19:21:32;;;;;;;29.75;21.13;;;;;;;6.89;54.64;97990.34;10296221;28;20089;-61
2022/04/12 19:26:33;;;;;;;19.13;12.55;;;;;;;6.69;54.89;97966.78;10297216;28;20141;-61
2022/04/12 19:31:31;;;;;;;21.73;14.55;;;;;;;6.47;55.20;97950.06;10297461;28;20061;-62
2022/04/12 19:36:31;;;;;;;23.95;15.77;;;;;;;6.61;55.40;97994.16;10296950;28;20104;-61
2022/04/12 19:41:30;;;;;;;17.90;12.43;;;;;;;6.47;56.17;98000.72;10294674;28;20069;-61
2022/04/12 19:46:29;;;;;;;;;;;;;;;6.28;57.31;98002.09;10296610;28;20085;-61
2022/04/12 19:51:28;;;;;;;22.35;12.73;;;;;;;5.98;59.75;97991.19;10295865;28;19924;-61
2022/04/12 19:56:27;;;;;;;20.25;12.43;;;;;;;5.86;60.54;98001.25;10295933;28;20396;-61
2022/04/12 20:01:28;;;;;;;20.23;12.65;;;;;;;5.56;61.49;97975.69;10296045;28;20096;-61
2022/04/12 20:06:27;;;;;;;22.73;14.75;;;;;;;5.74;60.46;98007.00;10294374;28;20061;-61
2022/04/12 20:11:26;;;;;;;19.85;13.75;;;;;;;5.73;60.65;98009.53;10294189;28;20069;-61
2022/04/12 20:16:30;;;;;;;22.02;14.27;;;;;;;5.46;60.34;97972.06;10295345;28;20076;-61
2022/04/12 20:21:30;;;;;;;30.38;17.38;;;;;;;5.63;61.19;98007.59;10295139;28;20050;-61
2022/04/12 20:26:29;;;;;;;28.98;14.82;;;;;;;5.49;61.80;98000.44;10294784;28;20069;-61
2022/04/12 20:31:28;;;;;;;36.85;22.52;;;;;;;5.49;61.92;98008.16;10291959;28;20096;-61
2022/04/12 20:36:28;;;;;;;43.25;28.23;;;;;;;5.45;62.91;98023.47;10295077;28;20506;-61
2022/04/12 20:41:27;;;;;;;34.10;20.10;;;;;;;5.24;64.10;98001.53;10295256;28;20518;-61
2022/04/12 20:46:26;;;;;;;40.40;24.13;;;;;;;4.86;64.02;97944.88;10294179;28;20518;-61
2022/04/12 20:51:25;;;;;;;45.78;30.00;;;;;;;5.24;64.73;98004.13;10293817;28;20546;-61
2022/04/12 20:56:24;;;;;;;45.92;28.25;;;;;;;4.82;64.48;97961.06;10293505;28;20445;-61
2022/04/12 21:01:23;;;;;;;37.70;23.35;;;;;;;5.10;65.06;98016.66;10292519;28;20496;-61
2022/04/12 21:06:22;;;;;;;25.13;17.58;;;;;;;4.61;66.08;97947.66;10293471;28;20488;-61
2022/04/12 21:11:21;;;;;;;28.67;13.32;;;;;;;4.21;65.89;97877.28;10292720;28;20041;-61
2022/04/12 21:16:20;;;;;;;35.00;18.25;;;;;;;4.75;67.07;98000.28;10292734;28;20072;-61
2022/04/12 21:21:19;;;;;;;26.73;17.85;;;;;;;4.48;66.72;97960.19;10293206;28;20042;-61
2022/04/12 21:26:19;;;;;;;31.08;17.52;;;;;;;4.47;66.89;97979.00;10292538;28;20030;-61
2022/04/12 21:31:21;;;;;;;27.52;16.58;;;;;;;4.45;67.38;98002.91;10291889;28;20073;-61
2022/04/12 21:36:20;;;;;;;27.08;17.45;;;;;;;4.38;67.49;97998.44;10292640;28;20061;-61
2022/04/12 21:41:19;;;;;;;31.88;20.02;;;;;;;4.13;68.24;97982.38;10291357;28;20036;-61
2022/04/12 21:46:18;;;;;;;30.73;18.83;;;;;;;4.18;67.89;98006.47;10291870;28;20034;-61
2022/04/12 21:51:17;;;;;;;30.30;20.45;;;;;;;4.01;68.78;97984.56;10291601;28;20073;-61
2022/04/12 21:56:16;;;;;;;39.97;22.20;;;;;;;4.04;68.94;98003.53;10291311;28;20034;-61
2022/04/12 22:01:15;;;;;;;39.83;21.55;;;;;;;3.89;69.32;97997.94;10291104;28;20400;-60
2022/04/12 22:06:14;;;;;;;30.88;19.38;;;;;;;3.55;70.54;97958.44;10291868;28;20040;-60
2022/04/12 22:11:14;;;;;;;33.80;18.25;;;;;;;3.71;70.36;98000.84;10290125;28;20033;-60
2022/04/12 22:16:14;;;;;;;35.40;22.45;;;;;;;3.68;70.72;98010.13;10289655;28;20134;-60
2022/04/12 22:21:13;;;;;;;21.90;14.15;;;;;;;3.49;70.43;97989.03;10290895;28;20138;-60
2022/04/12 22:26:12;;;;;;;25.77;17.25;;;;;;;3.63;70.73;98008.28;10290117;28;20080;-60
2022/04/12 22:31:11;;;;;;;48.70;29.52;;;;;;;3.61;70.78;98009.97;10289584;28;20044;-60
2022/04/12 22:36:10;;;;;;;44.17;26.10;;;;;;;3.52;70.94;98008.78;10290056;28;20532;-60
2022/04/12 22:41:09;;;;;;;32.95;20.40;;;;;;;3.06;71.14;97953.50;10290440;28;20523;-60
2022/04/12 22:46:09;;;;;;;29.95;17.73;;;;;;;3.28;71.85;98014.03;10289676;28;20046;-59
2022/04/12 22:51:08;;;;;;;26.60;16.50;;;;;;;1.91;71.54;97782.47;10289359;28;20100;-60
2022/04/12 22:56:07;;;;;;;30.25;17.73;;;;;;;2.93;71.61;97955.69;10289232;28;20061;-59
2022/04/12 23:01:06;;;;;;;30.92;17.90;;;;;;;3.03;72.27;97992.75;10287981;28;20084;-59
2022/04/12 23:06:05;;;;;;;26.48;16.60;;;;;;;2.70;72.88;97941.22;10289755;28;20459;-59